createdAt,value
2019-05-29T00:00:37.575Z,4.50
2019-05-29T00:03:08.250Z,4.53
2019-05-29T00:05:37.699Z,4.10
2019-05-29T00:08:08.259Z,4.70
2019-05-29T00:10:37.677Z,4.43
2019-05-29T00:13:08.103Z,4.07
2019-05-29T00:15:37.714Z,3.90
2019-05-29T00:18:08.228Z,4.40
2019-05-29T00:20:37.623Z,4.33
2019-05-29T00:23:08.333Z,4.30
2019-05-29T00:25:37.934Z,4.20
2019-05-29T00:28:08.445Z,4.40
2019-05-29T00:30:37.952Z,4.20
2019-05-29T00:33:07.985Z,4.27
2019-05-29T00:35:37.513Z,4.43
2019-05-29T00:38:06.885Z,4.03
2019-05-29T00:40:37.149Z,4.53
2019-05-29T00:43:07.323Z,4.33
2019-05-29T00:45:36.876Z,4.17
2019-05-29T00:48:07.606Z,4.67
2019-05-29T00:50:37.084Z,4.37
2019-05-29T00:53:06.497Z,3.90
2019-05-29T00:55:35.885Z,4.20
2019-05-29T00:58:05.212Z,4.50
2019-05-29T01:00:34.591Z,4.33
2019-05-29T01:03:03.937Z,3.97
2019-05-29T01:05:33.267Z,4.10
2019-05-29T01:08:02.638Z,4.10
2019-05-29T01:10:32.023Z,4.50
2019-05-29T01:13:01.368Z,4.50
2019-05-29T01:15:30.789Z,3.93
2019-05-29T01:18:00.122Z,4.00
2019-05-29T01:20:29.517Z,4.90
2019-05-29T01:22:58.839Z,4.40
2019-05-29T01:25:28.204Z,4.10
2019-05-29T01:27:57.912Z,4.43
2019-05-29T01:30:27.282Z,4.33
2019-05-29T01:32:56.644Z,4.37
2019-05-29T01:35:26.263Z,4.33
2019-05-29T01:37:55.615Z,4.40
2019-05-29T01:40:28.002Z,4.20
2019-05-29T01:42:56.990Z,4.60
2019-05-29T01:45:26.357Z,4.67
2019-05-29T01:47:56.046Z,4.20
2019-05-29T01:50:25.421Z,4.20
2019-05-29T01:52:54.771Z,4.17
2019-05-29T01:55:24.280Z,4.50
2019-05-29T01:57:53.680Z,4.53
2019-05-29T02:00:24.218Z,4.43
2019-05-29T02:02:54.426Z,4.37
2019-05-29T02:05:24.182Z,4.60
2019-05-29T02:07:53.623Z,4.80
2019-05-29T02:10:24.253Z,4.37
2019-05-29T02:12:53.970Z,4.53
2019-05-29T02:15:31.711Z,4.53
2019-05-29T02:17:54.532Z,4.67
2019-05-29T02:20:25.108Z,4.13
2019-05-29T02:22:55.541Z,4.70
2019-05-29T02:25:24.934Z,5.43
2019-05-29T02:27:54.304Z,4.63
2019-05-29T02:30:27.825Z,5.20
2019-05-29T02:32:54.991Z,4.63
2019-05-29T02:35:26.304Z,4.50
2019-05-29T02:37:55.470Z,4.70
2019-05-29T02:40:27.593Z,5.07
2019-05-29T02:42:55.927Z,5.73
2019-05-29T02:45:50.332Z,5.73
2019-05-29T02:47:57.371Z,4.73
2019-05-29T02:50:29.334Z,5.10
2019-05-29T02:52:58.706Z,5.30
2019-05-29T02:55:28.901Z,8.50
2019-05-29T02:57:58.397Z,5.80
2019-05-29T03:00:51.948Z,8.00
2019-05-29T03:03:21.727Z,5.37
2019-05-29T03:05:51.663Z,5.40
2019-05-29T03:08:22.291Z,5.70
2019-05-29T03:10:53.013Z,4.83
2019-05-29T03:13:23.166Z,5.30
2019-05-29T03:16:08.764Z,5.40
2019-05-29T03:18:25.700Z,4.80
2019-05-29T03:20:55.289Z,5.23
2019-05-29T03:23:26.427Z,5.00
2019-05-29T03:25:55.904Z,5.80
2019-05-29T03:28:25.727Z,5.70
2019-05-29T03:30:55.193Z,6.53
2019-05-29T03:33:27.187Z,6.37
2019-05-29T03:35:55.842Z,6.80
2019-05-29T03:38:26.111Z,6.70
2019-05-29T03:40:55.665Z,6.50
2019-05-29T03:43:26.154Z,6.90
2019-05-29T03:45:55.488Z,7.00
2019-05-29T03:48:25.934Z,7.10
2019-05-29T03:50:55.834Z,7.17
2019-05-29T03:53:25.164Z,8.17
2019-05-29T03:55:54.531Z,8.33
2019-05-29T03:58:23.898Z,7.77
2019-05-29T04:00:53.315Z,7.80
2019-05-29T04:03:22.781Z,8.60
2019-05-29T04:05:52.513Z,7.90
2019-05-29T04:08:22.342Z,6.93
2019-05-29T04:10:52.188Z,7.70
2019-05-29T04:13:21.581Z,7.50
2019-05-29T04:15:51.017Z,7.57
2019-05-29T04:18:23.016Z,8.10
2019-05-29T04:20:53.124Z,7.87
2019-05-29T04:23:24.397Z,8.50
2019-05-29T04:25:56.764Z,8.10
2019-05-29T04:28:27.935Z,8.73
2019-05-29T04:30:57.380Z,8.37
2019-05-29T04:33:28.165Z,9.70
2019-05-29T04:35:57.648Z,8.53
2019-05-29T04:38:28.640Z,8.70
2019-05-29T04:40:58.104Z,9.47
2019-05-29T04:43:28.764Z,10.93
2019-05-29T04:45:58.367Z,8.70
2019-05-29T04:48:29.436Z,9.60
2019-05-29T04:50:58.798Z,9.40
2019-05-29T04:53:29.419Z,10.30
2019-05-29T04:55:59.412Z,9.87
2019-05-29T04:58:29.194Z,9.60
2019-05-29T05:00:59.699Z,9.83
2019-05-29T05:03:30.988Z,10.53
2019-05-29T05:06:02.012Z,10.17
2019-05-29T05:08:31.533Z,9.63
2019-05-29T05:11:01.599Z,9.27
2019-05-29T05:13:31.496Z,10.93
2019-05-29T05:16:03.315Z,10.33
2019-05-29T05:18:35.843Z,10.03
2019-05-29T05:21:05.267Z,10.13
2019-05-29T05:23:36.058Z,9.80
2019-05-29T05:26:05.931Z,10.70
2019-05-29T05:28:36.482Z,9.80
2019-05-29T05:31:05.915Z,10.10
2019-05-29T05:33:37.038Z,9.40
2019-05-29T05:36:06.451Z,15.70
2019-05-29T05:38:36.879Z,10.00
2019-05-29T05:41:07.518Z,9.80
2019-05-29T05:43:39.044Z,8.75
2019-05-29T05:46:11.247Z,9.83
2019-05-29T05:48:41.701Z,9.65
2019-05-29T05:51:11.221Z,8.45
2019-05-29T05:53:41.709Z,7.72
2019-05-29T05:56:12.723Z,11.18
2019-05-29T05:58:43.793Z,11.12
2019-05-29T06:01:14.491Z,10.20
2019-05-29T06:03:45.074Z,8.73
2019-05-29T06:06:16.187Z,8.28
2019-05-29T06:08:47.307Z,7.55
2019-05-29T06:11:17.684Z,7.92
2019-05-29T06:13:47.170Z,10.58
2019-05-29T06:16:18.330Z,9.28
2019-05-29T06:18:49.036Z,7.85
2019-05-29T06:21:19.503Z,6.03
2019-05-29T06:23:49.011Z,5.70
2019-05-29T06:26:20.186Z,6.70
2019-05-29T06:28:50.497Z,6.25
2019-05-29T06:31:22.564Z,6.58
2019-05-29T06:33:52.040Z,5.80
2019-05-29T06:36:21.755Z,5.62
2019-05-29T06:38:51.910Z,6.28
2019-05-29T06:41:22.441Z,6.45
2019-05-29T06:43:51.907Z,5.92
2019-05-29T06:46:21.406Z,7.20
2019-05-29T06:48:59.600Z,8.15
2019-05-29T06:51:23.502Z,7.35
2019-05-29T06:53:53.065Z,6.78
2019-05-29T06:56:23.244Z,7.33
2019-05-29T06:58:53.579Z,7.47
2019-05-29T07:01:24.213Z,6.75
2019-05-29T07:04:10.661Z,7.72
2019-05-29T07:06:28.292Z,7.60
2019-05-29T07:08:57.916Z,12.95
2019-05-29T07:11:27.495Z,8.00
2019-05-29T07:13:57.377Z,8.28
2019-05-29T07:16:43.142Z,9.88
2019-05-29T07:21:29.532Z,7.87
2019-05-29T07:23:59.129Z,7.72
2019-05-29T07:26:29.081Z,7.92
2019-05-29T07:29:08.028Z,7.97
2019-05-29T07:31:30.574Z,8.50
2019-05-29T07:34:01.998Z,8.53
2019-05-29T07:36:34.757Z,8.58
2019-05-29T07:39:06.179Z,7.50
2019-05-29T07:41:38.101Z,7.53
2019-05-29T07:44:10.163Z,7.40
2019-05-29T07:46:42.295Z,7.42
2019-05-29T07:49:13.721Z,7.80
2019-05-29T07:51:45.098Z,7.05
2019-05-29T07:54:16.924Z,6.70
2019-05-29T07:56:48.680Z,7.15
2019-05-29T07:59:19.068Z,7.78
2019-05-29T08:01:49.253Z,6.85
2019-05-29T08:04:20.602Z,7.40
2019-05-29T08:06:54.411Z,7.10
2019-05-29T08:09:21.684Z,8.20
2019-05-29T08:11:51.084Z,9.00
2019-05-29T08:14:20.417Z,8.15
2019-05-29T08:16:50.203Z,8.23
2019-05-29T08:19:19.631Z,7.40
2019-05-29T08:21:50.564Z,7.78
2019-05-29T08:24:24.456Z,6.92
2019-05-29T08:26:51.599Z,7.47
2019-05-29T08:29:23.060Z,8.40
2019-05-29T08:31:52.871Z,7.45
2019-05-29T08:34:22.992Z,8.03
2019-05-29T08:37:06.291Z,10.38
2019-05-29T08:39:36.249Z,7.58
2019-05-29T08:42:21.140Z,8.23
2019-05-29T08:44:30.780Z,8.58
2019-05-29T08:47:09.731Z,7.22
2019-05-29T08:49:33.129Z,7.35
2019-05-29T08:52:11.582Z,7.65
2019-05-29T08:54:33.815Z,7.67
2019-05-29T08:57:03.244Z,7.28
2019-05-29T08:59:32.680Z,7.08
2019-05-29T09:02:02.038Z,11.78
2019-05-29T09:04:31.444Z,8.70
2019-05-29T09:07:01.215Z,8.15
2019-05-29T09:09:30.544Z,7.30
2019-05-29T09:11:59.886Z,6.37
2019-05-29T09:14:30.235Z,6.50
2019-05-29T09:16:59.659Z,6.25
2019-05-29T09:19:29.105Z,6.80
2019-05-29T09:21:58.579Z,6.80
2019-05-29T09:24:28.393Z,6.70
2019-05-29T09:26:57.781Z,6.22
2019-05-29T09:29:27.140Z,6.70
2019-05-29T09:31:56.539Z,6.72
2019-05-29T09:34:27.044Z,7.12
2019-05-29T09:36:56.651Z,6.58
2019-05-29T09:39:26.237Z,7.08
2019-05-29T09:41:56.002Z,6.50
2019-05-29T09:44:38.016Z,6.87
2019-05-29T09:46:56.829Z,6.83
2019-05-29T09:49:26.249Z,6.08
2019-05-29T09:51:56.163Z,6.58
2019-05-29T09:54:25.676Z,5.45
2019-05-29T09:56:56.663Z,6.37
2019-05-29T09:59:26.333Z,5.72
2019-05-29T10:01:56.957Z,6.30
2019-05-29T10:04:27.281Z,6.25
2019-05-29T10:06:57.604Z,6.00
2019-05-29T10:09:26.990Z,5.72
2019-05-29T10:12:00.970Z,6.25
2019-05-29T10:14:27.657Z,6.85
2019-05-29T10:16:59.325Z,5.90
2019-05-29T10:19:28.502Z,6.10
2019-05-29T10:21:58.325Z,6.30
2019-05-29T10:24:32.218Z,6.22
2019-05-29T10:27:01.512Z,6.75
2019-05-29T10:29:31.151Z,5.85
2019-05-29T10:32:00.963Z,6.20
2019-05-29T10:34:30.347Z,6.12
2019-05-29T10:37:02.973Z,7.15
2019-05-29T10:39:32.378Z,6.25
2019-05-29T10:42:01.769Z,6.50
2019-05-29T10:44:31.167Z,6.50
2019-05-29T10:47:00.602Z,6.12
2019-05-29T10:49:29.978Z,6.00
2019-05-29T10:52:13.731Z,6.30
2019-05-29T10:54:32.235Z,6.03
2019-05-29T10:57:02.350Z,6.03
2019-05-29T10:59:31.699Z,6.20
2019-05-29T11:02:01.146Z,5.78
2019-05-29T11:04:30.869Z,6.78
2019-05-29T11:07:00.350Z,5.95
2019-05-29T11:09:44.099Z,7.80
2019-05-29T11:12:02.049Z,6.58
2019-05-29T11:14:32.722Z,7.72
2019-05-29T11:17:02.166Z,5.70
2019-05-29T11:19:34.007Z,5.62
2019-05-29T11:22:24.703Z,6.17
2019-05-29T11:24:35.409Z,6.78
2019-05-29T11:27:04.901Z,7.05
2019-05-29T11:29:34.623Z,6.17
2019-05-29T11:32:04.059Z,5.80
2019-05-29T11:34:33.397Z,6.45
2019-05-29T11:37:03.117Z,6.08
2019-05-29T11:39:32.461Z,6.40
2019-05-29T11:42:03.155Z,7.08
2019-05-29T11:44:33.245Z,6.80
2019-05-29T11:47:03.036Z,6.40
2019-05-29T11:49:32.493Z,5.35
2019-05-29T11:52:22.626Z,5.90
2019-05-29T11:54:32.948Z,7.17
2019-05-29T11:57:03.263Z,8.50
2019-05-29T11:59:32.766Z,6.30
2019-05-29T12:02:03.326Z,6.87
2019-05-29T12:04:33.004Z,6.15
2019-05-29T12:07:02.425Z,6.10
2019-05-29T12:09:33.541Z,5.75
2019-05-29T12:12:02.956Z,7.92
2019-05-29T12:14:32.853Z,8.25
2019-05-29T12:17:02.796Z,9.20
2019-05-29T12:19:33.209Z,7.33
2019-05-29T12:22:03.895Z,5.60
2019-05-29T12:24:33.297Z,6.80
2019-05-29T12:27:02.827Z,5.83
2019-05-29T12:29:32.197Z,6.45
2019-05-29T12:32:02.550Z,6.50
2019-05-29T12:34:33.644Z,4.60
2019-05-29T12:37:03.874Z,5.53
2019-05-29T12:39:33.489Z,6.45
2019-05-29T12:42:03.817Z,5.55
2019-05-29T12:44:33.278Z,6.20
2019-05-29T12:47:04.166Z,6.67
2019-05-29T12:49:33.902Z,6.45
2019-05-29T12:52:07.102Z,5.53
2019-05-29T12:54:34.368Z,5.45
2019-05-29T12:57:04.267Z,5.50
2019-05-29T12:59:33.792Z,5.17
2019-05-29T13:02:04.588Z,6.70
2019-05-29T13:05:05.428Z,5.25
2019-05-29T13:07:05.451Z,5.60
2019-05-29T13:09:34.819Z,5.40
2019-05-29T13:12:04.818Z,5.10
2019-05-29T13:14:34.381Z,5.10
2019-05-29T13:17:05.186Z,5.20
2019-05-29T13:19:34.706Z,6.30
2019-05-29T13:22:06.251Z,5.78
2019-05-29T13:24:35.123Z,6.12
2019-05-29T13:27:05.889Z,6.00
2019-05-29T13:29:35.935Z,5.92
2019-05-29T13:32:07.354Z,6.15
2019-05-29T13:34:36.533Z,6.55
2019-05-29T13:37:08.041Z,5.87
2019-05-29T13:39:37.074Z,4.90
2019-05-29T13:42:11.296Z,5.40
2019-05-29T13:44:37.599Z,3.85
2019-05-29T13:47:08.495Z,3.27
2019-05-29T13:49:38.308Z,4.53
2019-05-29T13:52:11.842Z,5.62
2019-05-29T13:54:38.992Z,5.80
2019-05-29T13:57:08.757Z,5.75
2019-05-29T13:59:38.333Z,6.28
2019-05-29T14:02:08.766Z,6.40
2019-05-29T14:04:39.081Z,6.87
2019-05-29T14:07:08.967Z,7.03
2019-05-29T14:09:38.361Z,6.42
2019-05-29T14:12:09.193Z,5.90
2019-05-29T14:14:38.841Z,7.85
2019-05-29T14:17:08.821Z,6.80
2019-05-29T14:19:38.381Z,6.33
2019-05-29T14:22:09.123Z,6.65
2019-05-29T14:24:38.544Z,6.17
2019-05-29T14:27:07.886Z,7.20
2019-05-29T14:29:37.216Z,5.90
2019-05-29T14:32:07.357Z,6.78
2019-05-29T14:34:37.002Z,6.33
2019-05-29T14:37:07.833Z,6.03
2019-05-29T14:39:37.360Z,9.13
2019-05-29T14:42:08.262Z,7.10
2019-05-29T14:44:37.730Z,7.70
2019-05-29T14:47:08.018Z,7.40
2019-05-29T14:49:37.550Z,6.12
2019-05-29T14:52:07.066Z,6.90
2019-05-29T14:54:41.957Z,6.17
2019-05-29T14:57:20.280Z,7.47
2019-05-29T14:59:38.942Z,6.60
2019-05-29T15:02:18.882Z,7.55
2019-05-29T15:04:39.412Z,7.72
2019-05-29T15:07:09.893Z,7.12
2019-05-29T15:09:39.268Z,6.92
2019-05-29T15:12:12.617Z,6.62
2019-05-29T15:14:41.977Z,6.25
2019-05-29T15:17:12.954Z,7.55
2019-05-29T15:19:42.374Z,6.87
2019-05-29T15:22:13.985Z,8.98
2019-05-29T15:24:59.734Z,6.78
2019-05-29T15:27:14.452Z,3.40
2019-05-29T15:29:43.811Z,3.08
2019-05-29T15:32:14.530Z,3.90
2019-05-29T15:34:44.055Z,4.58
2019-05-29T15:37:15.468Z,3.67
2019-05-29T15:39:44.598Z,3.45
2019-05-29T15:42:15.055Z,26.20
2019-05-29T15:44:44.418Z,6.17
2019-05-29T15:47:14.737Z,3.23
2019-05-29T15:49:44.712Z,3.70
2019-05-29T15:52:15.254Z,9.17
2019-05-29T15:54:44.713Z,8.10
2019-05-29T15:57:15.002Z,5.07
2019-05-29T15:59:44.630Z,6.00
2019-05-29T16:02:13.966Z,5.10
2019-05-29T16:04:45.282Z,5.03
2019-05-29T16:07:14.634Z,5.50
2019-05-29T16:09:44.021Z,24.03
2019-05-29T16:12:14.790Z,18.30
2019-05-29T16:14:44.820Z,9.63
2019-05-29T16:17:15.253Z,5.20
2019-05-29T16:19:44.798Z,5.13
2019-05-29T16:22:14.435Z,5.53
2019-05-29T16:24:44.253Z,5.87
2019-05-29T16:27:14.058Z,6.50
2019-05-29T16:29:43.659Z,13.33
2019-05-29T16:32:13.673Z,7.27
2019-05-29T16:34:43.093Z,3.43
2019-05-29T16:37:13.389Z,3.50
2019-05-29T16:39:42.728Z,3.10
2019-05-29T16:42:13.893Z,3.53
2019-05-29T16:44:43.390Z,3.30
2019-05-29T16:47:14.633Z,3.10
2019-05-29T16:49:44.105Z,2.93
2019-05-29T16:52:14.810Z,2.50
2019-05-29T16:54:44.399Z,3.10
2019-05-29T16:57:15.017Z,2.90
2019-05-29T16:59:44.588Z,2.87
2019-05-29T17:02:15.514Z,3.23
2019-05-29T17:04:45.102Z,2.77
2019-05-29T17:07:15.695Z,4.03
2019-05-29T17:09:45.459Z,2.70
2019-05-29T17:12:14.826Z,2.50
2019-05-29T17:14:44.206Z,2.67
2019-05-29T17:17:15.309Z,2.67
2019-05-29T17:19:45.227Z,3.20
2019-05-29T17:22:14.824Z,3.67
2019-05-29T17:24:48.578Z,2.93
2019-05-29T17:27:18.756Z,2.87
2019-05-29T17:29:48.238Z,2.90
2019-05-29T17:32:18.806Z,2.20
2019-05-29T17:34:48.321Z,2.93
2019-05-29T17:37:18.940Z,3.23
2019-05-29T17:39:48.417Z,2.90
2019-05-29T17:42:18.080Z,2.63
2019-05-29T17:44:47.779Z,2.60
2019-05-29T17:47:17.796Z,4.00
2019-05-29T17:49:47.310Z,3.40
2019-05-29T17:52:17.689Z,3.60
2019-05-29T17:54:47.118Z,3.40
2019-05-29T17:57:17.032Z,3.03
2019-05-29T17:59:47.563Z,3.10
2019-05-29T18:02:18.089Z,3.03
2019-05-29T18:04:52.003Z,3.30
2019-05-29T18:07:22.629Z,3.27
2019-05-29T18:09:52.492Z,3.30
2019-05-29T18:12:23.013Z,3.53
2019-05-29T18:14:55.984Z,3.87
2019-05-29T18:17:25.553Z,3.90
2019-05-29T18:19:54.919Z,5.03
2019-05-29T18:22:25.693Z,9.00
2019-05-29T18:24:55.067Z,3.97
2019-05-29T18:27:25.979Z,3.30
2019-05-29T18:29:56.160Z,3.90
2019-05-29T18:32:26.898Z,3.10
2019-05-29T18:34:56.853Z,4.27
2019-05-29T18:37:26.805Z,3.40
2019-05-29T18:39:56.170Z,3.40
2019-05-29T18:42:27.386Z,3.50
2019-05-29T18:44:57.970Z,3.50
2019-05-29T18:47:27.823Z,3.83
2019-05-29T18:49:57.287Z,3.50
2019-05-29T18:52:29.911Z,3.73
2019-05-29T18:54:59.504Z,4.53
2019-05-29T18:57:29.102Z,4.70
2019-05-29T18:59:58.845Z,4.07
2019-05-29T19:02:29.539Z,3.93
2019-05-29T19:04:59.078Z,4.27
2019-05-29T19:07:29.669Z,4.37
2019-05-29T19:09:59.071Z,4.80
2019-05-29T19:12:29.934Z,3.97
2019-05-29T19:14:59.437Z,3.83
2019-05-29T19:17:30.261Z,3.80
2019-05-29T19:19:59.624Z,4.90
2019-05-29T19:22:29.005Z,3.47
2019-05-29T19:24:59.181Z,2.93
2019-05-29T19:27:37.497Z,3.03
2019-05-29T19:29:59.902Z,3.50
2019-05-29T19:32:29.434Z,3.43
2019-05-29T19:34:58.927Z,4.20
2019-05-29T19:37:28.260Z,3.17
2019-05-29T19:39:57.593Z,3.30
2019-05-29T19:42:28.065Z,3.43
2019-05-29T19:44:57.429Z,2.87
2019-05-29T19:47:26.853Z,3.27
2019-05-29T19:49:56.201Z,2.90
2019-05-29T19:52:25.547Z,3.30
2019-05-29T19:54:54.929Z,2.83
2019-05-29T19:57:25.947Z,3.00
2019-05-29T19:59:55.328Z,3.07
2019-05-29T20:02:24.656Z,2.43
2019-05-29T20:04:54.022Z,2.73
2019-05-29T20:07:23.413Z,2.70
2019-05-29T20:09:52.760Z,2.67
2019-05-29T20:12:22.074Z,2.47
2019-05-29T20:14:51.438Z,2.60
2019-05-29T20:17:20.779Z,2.60
2019-05-29T20:19:50.150Z,2.37
2019-05-29T20:22:19.476Z,2.53
2019-05-29T20:24:48.797Z,2.70
2019-05-29T20:27:18.185Z,2.60
2019-05-29T20:29:47.690Z,2.37
2019-05-29T20:32:17.246Z,2.70
2019-05-29T20:34:46.653Z,2.33
2019-05-29T20:37:15.960Z,2.50
2019-05-29T20:39:45.367Z,3.50
2019-05-29T20:42:14.798Z,2.47
2019-05-29T20:44:44.141Z,2.40
2019-05-29T20:47:13.458Z,2.60
2019-05-29T20:49:42.866Z,3.00
2019-05-29T20:52:12.180Z,2.50
2019-05-29T20:54:41.845Z,2.80
2019-05-29T20:57:11.769Z,2.63
2019-05-29T20:59:42.195Z,2.30
2019-05-29T21:02:11.756Z,2.47
2019-05-29T21:04:42.656Z,2.60
2019-05-29T21:07:12.286Z,2.50
2019-05-29T21:09:43.368Z,2.37
2019-05-29T21:12:12.797Z,2.50
2019-05-29T21:14:42.129Z,2.70
2019-05-29T21:17:11.493Z,2.20
2019-05-29T21:19:42.191Z,2.73
2019-05-29T21:22:11.734Z,2.13
2019-05-29T21:24:41.084Z,2.67
2019-05-29T21:27:10.448Z,2.50
2019-05-29T21:29:39.760Z,2.30
2019-05-29T21:32:09.109Z,2.77
2019-05-29T21:34:38.440Z,2.53
2019-05-29T21:37:07.934Z,2.30
2019-05-29T21:39:38.303Z,2.27
2019-05-29T21:42:07.715Z,2.30
2019-05-29T21:44:37.041Z,2.47
2019-05-29T21:47:06.516Z,2.30
2019-05-29T21:49:37.230Z,2.40
2019-05-29T21:52:06.634Z,2.30
2019-05-29T21:54:37.231Z,2.30
2019-05-29T21:57:06.673Z,2.17
2019-05-29T21:59:36.033Z,2.17
2019-05-29T22:02:05.654Z,2.40
2019-05-29T22:04:35.005Z,2.63
2019-05-29T22:07:04.397Z,2.60
2019-05-29T22:09:33.740Z,2.27
2019-05-29T22:12:03.101Z,2.27
2019-05-29T22:14:32.507Z,2.30
2019-05-29T22:17:01.847Z,2.20
2019-05-29T22:19:31.198Z,2.40
2019-05-29T22:22:01.282Z,2.10
2019-05-29T22:24:30.885Z,2.27
2019-05-29T22:27:01.428Z,2.30
2019-05-29T22:29:30.989Z,2.10
2019-05-29T22:32:01.338Z,1.90
2019-05-29T22:34:31.051Z,2.40
2019-05-29T22:37:01.783Z,2.30
2019-05-29T22:39:31.139Z,2.20
2019-05-29T22:42:01.714Z,2.50
2019-05-29T22:44:31.151Z,2.20
2019-05-29T22:47:00.467Z,2.30
2019-05-29T22:49:29.817Z,2.13
2019-05-29T22:51:59.914Z,2.57
2019-05-29T22:54:29.346Z,2.20
2019-05-29T22:56:59.947Z,2.00
2019-05-29T22:59:32.204Z,2.23
2019-05-29T23:02:00.482Z,2.10
2019-05-29T23:04:29.826Z,2.60
2019-05-29T23:07:00.345Z,2.20
2019-05-29T23:09:29.829Z,2.43
2019-05-29T23:12:00.343Z,2.27
2019-05-29T23:14:29.805Z,1.90
2019-05-29T23:16:59.139Z,2.20
2019-05-29T23:19:28.676Z,2.40
2019-05-29T23:21:58.988Z,2.33
2019-05-29T23:24:28.459Z,2.40
2019-05-29T23:26:58.781Z,2.20
2019-05-29T23:29:28.190Z,2.23
2019-05-29T23:31:57.533Z,2.00
2019-05-29T23:34:27.150Z,2.30
2019-05-29T23:36:57.105Z,2.40
2019-05-29T23:39:26.385Z,2.50
2019-05-29T23:41:55.746Z,2.40
2019-05-29T23:44:25.143Z,2.40
2019-05-29T23:46:55.352Z,2.23
2019-05-29T23:49:24.814Z,2.30
2019-05-29T23:51:55.276Z,2.43
2019-05-29T23:54:24.862Z,2.30
2019-05-29T23:56:54.201Z,2.20
2019-05-29T23:59:23.567Z,2.20
